Time;durP1;ratioP1;P1;durP2;ratioP2;P2;SDS_P1;SDS_P2;PMS_P1;PMS_P2;Temp;Humidity;BMP_temperature;BMP_pressure;BME280_temperature;BME280_humidity;BME280_pressure;Samples;Min_cycle;Max_cycle;Signal;HPM_P1;HPM_P2
2022/08/10 00:01:21;;;;;;;8.18;5.75;;;18.90;80.70;;;;;;5003349;28;20046;-78
2022/08/10 00:03:47;;;;;;;8.10;5.90;;;18.90;80.90;;;;;;5013342;28;20034;-78
2022/08/10 00:06:12;;;;;;;9.13;5.68;;;18.90;80.80;;;;;;5010829;28;20026;-78
2022/08/10 00:08:38;;;;;;;9.18;5.90;;;18.90;80.90;;;;;;5000496;28;20056;-79
2022/08/10 00:11:07;;;;;;;7.25;5.20;;;18.80;80.90;;;;;;4991528;28;20085;-78
2022/08/10 00:13:33;;;;;;;8.85;5.63;;;18.80;80.90;;;;;;5006086;28;20045;-78
2022/08/10 00:15:58;;;;;;;8.63;6.15;;;18.80;81.10;;;;;;5002957;28;20030;-78
2022/08/10 00:18:25;;;;;;;8.77;6.05;;;18.70;81.20;;;;;;5006196;28;20035;-77
2022/08/10 00:20:51;;;;;;;7.90;6.05;;;18.70;81.40;;;;;;5005615;28;20079;-78
2022/08/10 00:23:17;;;;;;;8.32;5.10;;;18.60;81.50;;;;;;5003324;28;20464;-77
2022/08/10 00:25:42;;;;;;;8.13;6.05;;;18.70;81.60;;;;;;5008325;28;20033;-78
2022/08/10 00:28:08;;;;;;;9.23;5.82;;;18.60;81.70;;;;;;4992571;28;20092;-78
2022/08/10 00:30:34;;;;;;;10.65;6.95;;;18.60;81.70;;;;;;5003218;28;20109;-78
2022/08/10 00:33:00;;;;;;;10.95;7.40;;;18.60;82.00;;;;;;4993321;28;20037;-78
2022/08/10 00:35:26;;;;;;;11.63;7.45;;;18.60;82.00;;;;;;5010418;28;20405;-77
2022/08/10 00:37:52;;;;;;;9.40;7.45;;;18.60;82.10;;;;;;5013375;28;20037;-78
2022/08/10 00:40:17;;;;;;;10.55;6.38;;;18.50;82.10;;;;;;5005396;28;20031;-76
2022/08/10 00:42:43;;;;;;;11.00;6.47;;;18.50;82.20;;;;;;5002264;28;20405;-78
2022/08/10 00:45:09;;;;;;;11.10;6.35;;;18.40;82.30;;;;;;4995746;28;20393;-78
2022/08/10 00:47:35;;;;;;;9.43;6.32;;;18.40;82.40;;;;;;5006672;28;20486;-77
2022/08/10 00:50:01;;;;;;;9.10;6.90;;;18.40;82.40;;;;;;5030552;28;20041;-78
2022/08/10 00:52:29;;;;;;;8.65;6.47;;;18.40;82.50;;;;;;4990928;28;20099;-78
2022/08/10 00:54:55;;;;;;;9.00;6.47;;;18.30;82.50;;;;;;5046000;28;20068;-78
2022/08/10 00:57:21;;;;;;;9.27;6.90;;;18.30;82.60;;;;;;5009421;28;20042;-78
2022/08/10 00:59:47;;;;;;;8.80;6.97;;;18.30;82.60;;;;;;4980744;28;20039;-78
2022/08/10 01:02:12;;;;;;;8.95;6.88;;;18.30;82.70;;;;;;4983092;28;20514;-77
2022/08/10 01:04:38;;;;;;;8.52;6.78;;;18.30;82.90;;;;;;4986456;28;20482;-78
2022/08/10 01:07:17;;;;;;;9.52;7.05;;;18.20;83.10;;;;;;4994553;28;20660;-77
2022/08/10 01:09:54;;;;;;;10.20;7.13;;;18.20;83.20;;;;;;5003358;28;20129;-78
2022/08/10 01:12:31;;;;;;;9.13;6.88;;;18.10;83.30;;;;;;4997454;28;20050;-77
2022/08/10 01:15:09;;;;;;;10.50;6.82;;;18.20;83.20;;;;;;4989087;28;20141;-78
2022/08/10 01:18:01;;;;;;;9.38;7.35;;;18.10;83.20;;;;;;5006868;28;20050;-78
2022/08/10 01:20:32;;;;;;;10.85;7.72;;;18.10;83.10;;;;;;4982956;28;20045;-77
2022/08/10 01:23:19;;;;;;;9.18;7.20;;;18.10;83.10;;;;;;5004222;28;20600;-77
2022/08/10 01:26:04;;;;;;;10.05;7.35;;;18.10;83.20;;;;;;4984851;28;20081;-78
2022/08/10 01:28:37;;;;;;;9.18;6.70;;;18.10;83.20;;;;;;4999185;28;20384;-78
2022/08/10 01:31:04;;;;;;;9.15;6.65;;;18.10;83.20;;;;;;4985875;28;20088;-78
2022/08/10 01:33:35;;;;;;;9.32;6.85;;;18.10;83.30;;;;;;4981877;28;20121;-77
2022/08/10 01:36:21;;;;;;;9.65;7.05;;;18.00;83.50;;;;;;4989948;28;20105;-78
2022/08/10 01:38:50;;;;;;;8.75;7.55;;;18.10;83.60;;;;;;4986391;28;20598;-78
2022/08/10 01:41:23;;;;;;;9.60;8.05;;;18.10;83.60;;;;;;4991904;28;20022;-78
2022/08/10 01:44:07;;;;;;;9.07;7.50;;;18.00;83.60;;;;;;5000366;28;20097;-77
2022/08/10 01:46:35;;;;;;;9.53;6.80;;;18.00;83.60;;;;;;4994699;28;20090;-78
2022/08/10 01:49:05;;;;;;;8.57;7.20;;;17.90;83.80;;;;;;4988256;28;20078;-77
2022/08/10 01:51:48;;;;;;;12.15;7.20;;;17.90;83.90;;;;;;4996619;28;20027;-77
2022/08/10 01:54:19;;;;;;;8.90;7.03;;;17.80;84.00;;;;;;4995759;28;20472;-79
2022/08/10 01:56:52;;;;;;;9.15;7.18;;;17.80;84.10;;;;;;4985737;28;20058;-78
2022/08/10 01:59:23;;;;;;;8.80;6.70;;;17.80;84.00;;;;;;4992598;28;20037;-78
2022/08/10 02:01:52;;;;;;;9.73;6.60;;;17.80;84.10;;;;;;4993741;28;20072;-78
2022/08/10 02:04:19;;;;;;;10.13;7.55;;;17.80;84.10;;;;;;5005926;28;20038;-78
2022/08/10 02:06:48;;;;;;;13.93;7.22;;;17.70;84.30;;;;;;4988470;28;20075;-78
2022/08/10 02:09:34;;;;;;;9.05;6.97;;;17.80;84.30;;;;;;4990889;28;20038;-78
2022/08/10 02:12:04;;;;;;;9.93;7.75;;;17.70;84.40;;;;;;4990248;28;21145;-78
2022/08/10 02:14:34;;;;;;;11.93;7.88;;;17.70;84.50;;;;;;4998475;28;20040;-78
2022/08/10 02:17:05;;;;;;;10.50;7.63;;;17.70;84.40;;;;;;4989283;28;20034;-78
2022/08/10 02:19:34;;;;;;;9.02;7.60;;;17.60;84.60;;;;;;5000694;28;20076;-78
2022/08/10 02:22:01;;;;;;;9.50;7.82;;;17.60;84.50;;;;;;4999222;28;20050;-78
2022/08/10 02:24:27;;;;;;;11.82;8.27;;;17.60;84.60;;;;;;4993015;28;20062;-77
2022/08/10 02:26:54;;;;;;;10.65;7.85;;;17.60;84.50;;;;;;4980304;28;20037;-77
2022/08/10 02:29:20;;;;;;;10.68;7.35;;;17.60;84.50;;;;;;5002385;28;20366;-77
2022/08/10 02:31:46;;;;;;;9.20;6.68;;;17.60;84.50;;;;;;5008728;28;20072;-78
2022/08/10 02:34:14;;;;;;;10.20;8.52;;;17.60;84.60;;;;;;5011065;28;20049;-78
2022/08/10 02:36:46;;;;;;;10.57;7.95;;;17.60;84.60;;;;;;5004999;28;20546;-78
2022/08/10 02:39:13;;;;;;;12.27;7.70;;;17.60;84.60;;;;;;5014123;28;20114;-77
2022/08/10 02:41:44;;;;;;;10.95;7.70;;;17.60;84.60;;;;;;5002247;28;20045;-78
2022/08/10 02:44:23;;;;;;;9.35;7.43;;;17.60;84.50;;;;;;4999573;28;20065;-78
2022/08/10 02:46:57;;;;;;;11.02;8.15;;;17.60;84.40;;;;;;5000641;28;20030;-78
2022/08/10 02:49:31;;;;;;;10.88;8.77;;;17.50;84.40;;;;;;4998253;28;20034;-78
2022/08/10 02:51:57;;;;;;;10.43;7.75;;;17.50;84.50;;;;;;5004313;28;20026;-78
2022/08/10 02:54:27;;;;;;;9.60;7.85;;;17.50;84.60;;;;;;4988798;28;20046;-78
2022/08/10 02:57:01;;;;;;;11.45;8.55;;;17.40;84.50;;;;;;4998807;28;20047;-77
2022/08/10 02:59:35;;;;;;;9.88;7.50;;;17.40;84.60;;;;;;5008357;28;20113;-77
2022/08/10 03:02:04;;;;;;;9.82;7.97;;;17.40;84.70;;;;;;5013440;28;20091;-78
2022/08/10 03:04:36;;;;;;;10.40;7.50;;;17.30;84.80;;;;;;5016366;28;20169;-78
2022/08/10 03:07:09;;;;;;;11.25;8.52;;;17.30;84.80;;;;;;5010159;28;20118;-78
2022/08/10 03:09:39;;;;;;;13.30;8.32;;;17.30;84.70;;;;;;5024400;28;20156;-79
2022/08/10 03:12:07;;;;;;;11.45;8.05;;;17.30;84.70;;;;;;5024218;28;20239;-78
2022/08/10 03:14:36;;;;;;;9.70;8.35;;;17.20;84.90;;;;;;4996774;28;20042;-78
2022/08/10 03:17:03;;;;;;;10.50;8.43;;;17.20;84.90;;;;;;5004769;28;20523;-78
2022/08/10 03:19:32;;;;;;;11.52;8.73;;;17.20;85.00;;;;;;4993758;28;20104;-78
2022/08/10 03:21:58;;;;;;;13.18;9.02;;;17.10;85.00;;;;;;4994323;28;20031;-78
2022/08/10 03:24:26;;;;;;;12.10;9.02;;;17.10;84.90;;;;;;5020851;28;20041;-78
2022/08/10 03:26:53;;;;;;;10.88;8.73;;;17.10;84.90;;;;;;5015263;28;20040;-77
2022/08/10 03:29:21;;;;;;;12.63;8.32;;;17.10;85.00;;;;;;5024683;28;20033;-77
2022/08/10 03:31:48;;;;;;;11.50;8.90;;;17.10;85.10;;;;;;5017598;28;20033;-77
2022/08/10 03:34:16;;;;;;;12.52;9.48;;;17.10;85.10;;;;;;5024709;28;20029;-78
2022/08/10 03:36:42;;;;;;;11.10;8.70;;;17.10;85.10;;;;;;5018172;28;20105;-77
2022/08/10 03:39:09;;;;;;;12.32;8.10;;;17.00;85.20;;;;;;5019989;28;20052;-78
2022/08/10 03:41:40;;;;;;;11.35;8.32;;;17.00;85.30;;;;;;4999163;28;20037;-77
2022/08/10 03:44:08;;;;;;;10.23;8.35;;;16.90;85.20;;;;;;5010855;28;20049;-78
2022/08/10 03:46:37;;;;;;;10.93;8.32;;;17.00;85.10;;;;;;5012019;28;20036;-77
2022/08/10 03:49:04;;;;;;;11.32;8.20;;;17.00;85.10;;;;;;5006199;28;20036;-78
2022/08/10 03:51:32;;;;;;;10.00;7.75;;;16.90;85.10;;;;;;5001991;28;20038;-79
2022/08/10 03:53:58;;;;;;;11.70;8.85;;;16.90;85.20;;;;;;5011445;28;20045;-78
2022/08/10 03:56:24;;;;;;;11.40;8.23;;;16.90;85.10;;;;;;5003892;28;20049;-77
2022/08/10 03:58:50;;;;;;;10.13;8.02;;;16.90;85.20;;;;;;5012636;28;20482;-78
2022/08/10 04:01:16;;;;;;;11.15;8.15;;;16.80;85.30;;;;;;5008631;28;20041;-77
2022/08/10 04:03:42;;;;;;;12.80;8.25;;;16.70;85.40;;;;;;5016756;28;20497;-77
2022/08/10 04:06:10;;;;;;;12.85;8.73;;;16.80;85.40;;;;;;5014718;28;20077;-78
2022/08/10 04:08:42;;;;;;;12.05;8.82;;;16.70;85.40;;;;;;5020935;28;20034;-78
2022/08/10 04:11:09;;;;;;;13.80;9.02;;;16.70;85.50;;;;;;5009653;28;20402;-77
2022/08/10 04:13:35;;;;;;;13.07;8.30;;;16.70;85.50;;;;;;5001244;28;20377;-77
2022/08/10 04:16:00;;;;;;;13.73;8.43;;;16.70;85.30;;;;;;4998202;28;20033;-77
2022/08/10 04:18:26;;;;;;;12.93;8.70;;;16.70;85.40;;;;;;5003827;28;20031;-76
2022/08/10 04:20:57;;;;;;;16.13;8.57;;;16.70;85.30;;;;;;5004872;28;20042;-78
2022/08/10 04:23:27;;;;;;;11.43;8.93;;;16.70;85.30;;;;;;5005970;28;20080;-79
2022/08/10 04:25:53;;;;;;;13.30;9.05;;;16.60;85.40;;;;;;5014520;28;20034;-78
2022/08/10 04:28:19;;;;;;;12.73;8.65;;;16.60;85.50;;;;;;5008267;28;20375;-78
2022/08/10 04:30:46;;;;;;;12.38;8.63;;;16.60;85.50;;;;;;5015175;28;20049;-78
2022/08/10 04:33:15;;;;;;;10.43;7.63;;;16.70;85.30;;;;;;5013994;28;20523;-79
2022/08/10 04:35:44;;;;;;;14.98;8.88;;;16.70;85.20;;;;;;5018578;28;20053;-78
2022/08/10 04:38:10;;;;;;;12.75;8.63;;;16.60;85.20;;;;;;5014497;28;20030;-79
2022/08/10 04:40:37;;;;;;;11.88;9.13;;;16.60;85.10;;;;;;5012535;28;20040;-78
2022/08/10 04:43:05;;;;;;;11.93;9.38;;;16.60;85.20;;;;;;4998214;28;20069;-79
2022/08/10 04:45:32;;;;;;;9.77;8.75;;;16.60;85.30;;;;;;5003447;28;20431;-78
2022/08/10 04:47:58;;;;;;;11.35;8.88;;;16.60;85.40;;;;;;5006509;28;20026;-79
2022/08/10 04:50:24;;;;;;;10.35;8.70;;;16.60;85.30;;;;;;4993019;28;20022;-79
2022/08/10 04:52:50;;;;;;;10.63;9.00;;;16.60;85.10;;;;;;4990675;28;20037;-77
2022/08/10 04:55:16;;;;;;;13.05;9.02;;;16.60;85.10;;;;;;4998004;28;20181;-79
2022/08/10 04:57:41;;;;;;;15.18;8.65;;;16.60;85.10;;;;;;5009942;28;20101;-78
2022/08/10 05:00:08;;;;;;;13.27;8.20;;;16.60;85.00;;;;;;5006522;28;20018;-78
2022/08/10 05:02:33;;;;;;;11.65;8.75;;;16.60;85.00;;;;;;5006224;28;20022;-78
2022/08/10 05:04:59;;;;;;;10.38;8.38;;;16.70;84.80;;;;;;4997028;28;20080;-78
2022/08/10 05:07:25;;;;;;;11.73;8.77;;;16.70;84.70;;;;;;4996538;28;20026;-78
2022/08/10 05:09:53;;;;;;;12.18;9.15;;;16.80;84.50;;;;;;5003673;28;20022;-78
2022/08/10 05:12:19;;;;;;;11.38;8.80;;;16.80;84.50;;;;;;5002820;28;20046;-78
2022/08/10 05:14:44;;;;;;;13.43;8.68;;;16.80;84.40;;;;;;4992606;28;20061;-78
2022/08/10 05:17:10;;;;;;;14.50;8.38;;;16.80;84.30;;;;;;5010699;28;20344;-78
2022/08/10 05:19:36;;;;;;;13.52;8.45;;;16.80;84.20;;;;;;4994694;28;20110;-78
2022/08/10 05:22:03;;;;;;;10.50;8.25;;;16.80;84.20;;;;;;5017188;28;20046;-78
2022/08/10 05:24:29;;;;;;;13.07;8.98;;;16.80;84.10;;;;;;5007340;28;20029;-78
2022/08/10 05:26:55;;;;;;;13.63;8.45;;;16.80;83.90;;;;;;5016336;28;20111;-78
2022/08/10 05:29:21;;;;;;;14.73;9.30;;;16.90;83.90;;;;;;5007774;28;20115;-78
2022/08/10 05:31:47;;;;;;;20.83;8.95;;;16.90;83.80;;;;;;5017806;28;20108;-78
2022/08/10 05:34:13;;;;;;;12.77;8.73;;;16.90;83.80;;;;;;5015086;28;20029;-78
2022/08/10 05:36:41;;;;;;;15.25;8.68;;;16.90;83.80;;;;;;5010592;28;20108;-78
2022/08/10 05:39:07;;;;;;;12.40;8.90;;;17.00;83.50;;;;;;5020800;28;20092;-77
2022/08/10 05:41:34;;;;;;;14.30;9.20;;;17.10;83.30;;;;;;5008246;28;20096;-79
2022/08/10 05:43:59;;;;;;;12.02;9.07;;;17.10;83.20;;;;;;5008107;28;20029;-79
2022/08/10 05:46:25;;;;;;;14.85;8.52;;;17.10;83.10;;;;;;5016225;28;20372;-79
2022/08/10 05:48:51;;;;;;;14.02;8.70;;;17.20;82.90;;;;;;5010831;28;20037;-79
2022/08/10 05:51:17;;;;;;;12.07;9.18;;;17.30;82.70;;;;;;5007632;28;20047;-79
2022/08/10 05:53:43;;;;;;;10.82;8.35;;;17.40;82.60;;;;;;5006375;28;20056;-78
2022/08/10 05:56:10;;;;;;;11.13;8.13;;;17.50;82.60;;;;;;5009077;28;20052;-79
2022/08/10 05:58:36;;;;;;;11.77;8.77;;;17.50;82.30;;;;;;5013586;28;20038;-78
2022/08/10 06:01:05;;;;;;;13.43;8.77;;;17.60;81.90;;;;;;5020847;28;20022;-79
2022/08/10 06:03:42;;;;;;;13.57;8.90;;;17.70;81.90;;;;;;5012382;28;20030;-79
2022/08/10 06:06:10;;;;;;;12.43;8.75;;;17.80;81.30;;;;;;5012068;28;20258;-79
2022/08/10 06:08:39;;;;;;;12.50;8.40;;;17.90;81.10;;;;;;5019394;28;20056;-78
2022/08/10 06:11:06;;;;;;;13.43;8.50;;;18.10;81.00;;;;;;5018204;28;20049;-79
2022/08/10 06:16:22;;;;;;;11.43;8.45;;;18.20;79.30;;;;;;5000463;28;20210;-78
2022/08/10 06:18:48;;;;;;;12.30;8.13;;;18.40;79.50;;;;;;5007289;28;20089;-79
2022/08/10 06:21:15;;;;;;;12.93;7.45;;;18.60;78.50;;;;;;4993941;28;20059;-78
2022/08/10 06:23:43;;;;;;;10.93;8.05;;;18.60;77.70;;;;;;5009372;28;20037;-78
2022/08/10 06:26:08;;;;;;;10.13;7.60;;;18.60;77.80;;;;;;5001394;28;20361;-78
2022/08/10 06:28:37;;;;;;;12.85;7.47;;;18.80;77.10;;;;;;4999532;28;20068;-74
2022/08/10 06:31:05;;;;;;;11.75;8.27;;;19.00;76.30;;;;;;4998895;28;20018;-76
2022/08/10 06:33:35;;;;;;;12.38;7.35;;;19.10;76.70;;;;;;4996304;28;20042;-76
2022/08/10 06:36:03;;;;;;;10.50;7.30;;;19.20;75.60;;;;;;4996148;28;20038;-76
2022/08/10 06:38:32;;;;;;;10.85;7.20;;;19.50;76.10;;;;;;4997580;28;20030;-76
2022/08/10 06:41:03;;;;;;;10.10;7.20;;;19.60;74.30;;;;;;4996664;28;20042;-77
2022/08/10 06:43:31;;;;;;;13.70;7.55;;;19.80;73.50;;;;;;4993487;28;20056;-75
2022/08/10 06:46:02;;;;;;;11.57;7.28;;;19.90;73.20;;;;;;4999672;28;20035;-74
2022/08/10 06:48:34;;;;;;;9.32;6.22;;;19.90;72.00;;;;;;4992376;28;20058;-75
2022/08/10 06:51:04;;;;;;;12.55;7.38;;;20.10;72.20;;;;;;4978548;28;20069;-75
2022/08/10 06:53:34;;;;;;;10.13;7.65;;;20.20;70.80;;;;;;4994917;28;20104;-75
2022/08/10 06:56:06;;;;;;;11.82;7.55;;;20.40;70.70;;;;;;4990242;28;20070;-75
2022/08/10 06:58:37;;;;;;;10.90;6.20;;;20.50;70.00;;;;;;4991214;28;20027;-75
2022/08/10 07:01:07;;;;;;;11.25;7.65;;;20.70;69.90;;;;;;4981154;28;20058;-75
2022/08/10 07:03:40;;;;;;;11.18;7.50;;;21.00;68.60;;;;;;4981823;28;20113;-75
2022/08/10 07:06:07;;;;;;;12.25;7.25;;;20.90;68.30;;;;;;4986119;28;20385;-75
2022/08/10 07:08:35;;;;;;;10.77;7.38;;;20.90;68.30;;;;;;4993037;28;20437;-75
2022/08/10 07:11:03;;;;;;;11.40;7.18;;;21.00;67.90;;;;;;4987875;28;20473;-76
2022/08/10 07:13:30;;;;;;;13.55;7.00;;;21.00;67.50;;;;;;5007379;28;20050;-75
2022/08/10 07:15:57;;;;;;;11.65;7.13;;;21.30;66.30;;;;;;5001427;28;20041;-75
2022/08/10 07:18:24;;;;;;;10.25;6.88;;;21.60;65.50;;;;;;4996820;28;20552;-75
2022/08/10 07:20:52;;;;;;;10.88;6.07;;;21.70;65.50;;;;;;4996959;28;20084;-74
2022/08/10 07:23:21;;;;;;;10.77;7.07;;;22.10;64.60;;;;;;4994157;28;20481;-76
2022/08/10 07:25:48;;;;;;;12.93;6.50;;;22.20;63.20;;;;;;5007458;28;20046;-75
2022/08/10 07:28:15;;;;;;;9.25;6.53;;;22.30;63.30;;;;;;5026950;28;20022;-76
2022/08/10 07:30:42;;;;;;;11.13;7.95;;;22.20;62.90;;;;;;5014635;28;20334;-75
2022/08/10 07:33:09;;;;;;;10.98;6.65;;;22.00;63.10;;;;;;5005193;28;20062;-76
2022/08/10 07:35:37;;;;;;;11.60;7.07;;;22.00;63.50;;;;;;5013675;28;20021;-74
2022/08/10 07:38:05;;;;;;;11.20;6.70;;;22.30;62.80;;;;;;5001568;28;20109;-73
2022/08/10 07:40:33;;;;;;;10.55;7.20;;;22.40;62.40;;;;;;5010244;28;20054;-74
2022/08/10 07:42:59;;;;;;;11.65;7.07;;;22.60;61.90;;;;;;5006744;28;20045;-75
2022/08/10 07:45:30;;;;;;;8.70;6.68;;;22.90;61.10;;;;;;4999337;28;20029;-75
2022/08/10 07:48:02;;;;;;;11.30;6.75;;;23.10;60.20;;;;;;5008487;28;20033;-74
2022/08/10 07:50:29;;;;;;;22.08;7.13;;;23.00;60.20;;;;;;4998396;28;20037;-73
2022/08/10 07:53:00;;;;;;;11.90;7.43;;;22.90;60.70;;;;;;4997374;28;20078;-77
2022/08/10 07:55:27;;;;;;;10.77;6.45;;;23.00;60.50;;;;;;5002052;28;20413;-79
2022/08/10 07:57:56;;;;;;;10.27;7.05;;;23.00;60.20;;;;;;5004908;28;20042;-77
2022/08/10 08:00:24;;;;;;;11.32;7.18;;;23.20;60.10;;;;;;5004544;28;20485;-78
2022/08/10 08:02:53;;;;;;;11.38;8.02;;;23.50;58.60;;;;;;5000228;28;20037;-77
2022/08/10 08:05:21;;;;;;;12.90;7.05;;;23.70;57.50;;;;;;5000658;28;20038;-77
2022/08/10 08:07:49;;;;;;;11.25;7.47;;;23.70;58.00;;;;;;5004835;28;20116;-76
2022/08/10 08:10:16;;;;;;;10.63;7.25;;;23.50;58.00;;;;;;5002174;28;20118;-76
2022/08/10 08:12:43;;;;;;;12.95;6.75;;;23.50;58.40;;;;;;5011239;28;20491;-77
2022/08/10 08:15:11;;;;;;;10.10;6.65;;;23.30;58.50;;;;;;4999745;28;20426;-74
2022/08/10 08:17:39;;;;;;;8.52;6.10;;;23.30;59.40;;;;;;5002349;28;20042;-74
2022/08/10 08:20:06;;;;;;;10.10;6.63;;;23.80;58.10;;;;;;5008192;28;20041;-76
2022/08/10 08:22:32;;;;;;;10.73;6.03;;;23.90;56.30;;;;;;5007733;28;20043;-73
2022/08/10 08:24:59;;;;;;;13.63;6.88;;;24.10;57.30;;;;;;5001953;28;20520;-75
2022/08/10 08:27:27;;;;;;;11.27;6.80;;;24.20;56.30;;;;;;4991531;28;20050;-75
2022/08/10 08:29:53;;;;;;;12.50;6.13;;;24.50;55.30;;;;;;5001314;28;20248;-75
2022/08/10 08:32:25;;;;;;;13.15;6.35;;;24.80;54.70;;;;;;4989363;28;20070;-73
2022/08/10 08:35:08;;;;;;;11.98;6.38;;;25.00;53.70;;;;;;5007555;28;20037;-73
2022/08/10 08:37:38;;;;;;;10.13;5.97;;;24.80;54.00;;;;;;4990336;28;20037;-73
2022/08/10 08:40:09;;;;;;;11.13;6.38;;;24.90;54.00;;;;;;4985874;28;20040;-72
2022/08/10 08:42:55;;;;;;;14.60;7.07;;;25.20;53.70;;;;;;5012954;28;20030;-72
2022/08/10 08:45:43;;;;;;;14.68;6.32;;;25.20;53.00;;;;;;4977285;28;20118;-74
2022/08/10 08:48:31;;;;;;;9.02;6.30;;;25.20;53.40;;;;;;4974245;28;20077;-74
2022/08/10 08:51:16;;;;;;;11.40;6.47;;;25.30;52.90;;;;;;4984789;28;20038;-74
2022/08/10 08:53:58;;;;;;;11.15;6.28;;;25.40;52.90;;;;;;4992039;28;20062;-73
2022/08/10 08:56:33;;;;;;;8.85;6.00;;;25.50;51.30;;;;;;4985596;28;20034;-73
2022/08/10 08:59:10;;;;;;;9.20;5.50;;;25.60;51.50;;;;;;4982822;28;20022;-73
2022/08/10 09:02:13;;;;;;;9.27;5.70;;;25.30;52.40;;;;;;4985919;28;20086;-74
2022/08/10 09:05:00;;;;;;;11.90;5.35;;;25.80;51.90;;;;;;5009383;28;20041;-73
2022/08/10 09:07:57;;;;;;;9.77;5.65;;;25.90;50.70;;;;;;4993153;28;20115;-74
2022/08/10 09:10:37;;;;;;;10.60;5.05;;;25.80;50.50;;;;;;4985050;28;20027;-74
2022/08/10 09:13:13;;;;;;;12.57;5.15;;;26.00;50.40;;;;;;5012043;28;20502;-74
2022/08/10 09:15:46;;;;;;;9.07;4.45;;;26.10;50.00;;;;;;4979628;28;20035;-74
2022/08/10 09:18:24;;;;;;;9.02;5.07;;;26.50;49.80;;;;;;4978322;28;20042;-74
2022/08/10 09:21:28;;;;;;;12.73;5.43;;;27.00;47.90;;;;;;4974742;28;20241;-75
2022/08/10 09:24:04;;;;;;;7.25;4.45;;;26.40;48.60;;;;;;4988820;28;20043;-74
2022/08/10 09:26:39;;;;;;;10.40;4.47;;;26.80;48.70;;;;;;4983050;28;20036;-74
2022/08/10 09:29:08;;;;;;;8.40;4.72;;;27.10;47.50;;;;;;4999531;28;20150;-74
2022/08/10 09:31:46;;;;;;;8.30;4.10;;;27.10;47.30;;;;;;4978768;28;20513;-74
2022/08/10 09:34:30;;;;;;;10.45;4.85;;;27.50;46.10;;;;;;4995018;28;20066;-74
2022/08/10 09:37:04;;;;;;;7.22;4.68;;;27.00;45.70;;;;;;4980178;28;20442;-74
2022/08/10 09:39:50;;;;;;;9.48;4.55;;;26.90;46.30;;;;;;4995555;28;20386;-74
2022/08/10 09:42:27;;;;;;;10.10;4.32;;;27.30;45.80;;;;;;4975684;28;20440;-74
2022/08/10 09:45:04;;;;;;;8.55;4.43;;;27.70;45.00;;;;;;4973699;28;20047;-74
2022/08/10 09:47:58;;;;;;;10.48;4.38;;;27.80;44.60;;;;;;4991482;28;20038;-75
2022/08/10 09:50:41;;;;;;;9.77;4.40;;;27.70;44.70;;;;;;5002709;28;20025;-74
2022/08/10 09:53:39;;;;;;;10.38;4.78;;;27.40;45.60;;;;;;5000913;28;20022;-74
2022/08/10 09:56:14;;;;;;;9.15;4.18;;;27.10;45.60;;;;;;4984401;28;20038;-72
2022/08/10 09:58:50;;;;;;;10.30;3.80;;;27.50;45.20;;;;;;4998830;28;20164;-74
2022/08/10 10:01:50;;;;;;;11.38;4.57;;;27.60;45.70;;;;;;5001118;28;20092;-73
2022/08/10 10:04:38;;;;;;;7.55;3.67;;;28.00;43.80;;;;;;4999462;28;20030;-74
2022/08/10 10:07:07;;;;;;;9.38;4.20;;;28.40;44.00;;;;;;4994586;28;20045;-74
2022/08/10 10:09:49;;;;;;;7.55;3.97;;;28.40;43.50;;;;;;4996679;28;20058;-73
2022/08/10 10:12:52;;;;;;;7.47;3.80;;;28.20;42.70;;;;;;5011619;28;20041;-74
2022/08/10 10:15:20;;;;;;;9.30;3.80;;;28.10;43.20;;;;;;5011640;28;20398;-73
2022/08/10 10:18:05;;;;;;;10.00;4.30;;;28.40;43.00;;;;;;5000829;28;20037;-74
2022/08/10 10:20:48;;;;;;;9.68;4.30;;;28.50;42.00;;;;;;5006598;28;20037;-74
2022/08/10 10:23:51;;;;;;;11.18;4.22;;;28.30;42.10;;;;;;4994961;28;20026;-74
2022/08/10 10:26:53;;;;;;;9.80;3.95;;;28.50;42.20;;;;;;5002428;28;20022;-74
2022/08/10 10:29:43;;;;;;;11.32;4.28;;;28.60;40.60;;;;;;4996257;28;20042;-73
2022/08/10 10:32:33;;;;;;;12.73;4.10;;;28.50;41.00;;;;;;4995748;28;20043;-74
2022/08/10 10:35:06;;;;;;;9.23;3.78;;;28.70;40.90;;;;;;4995241;28;20034;-73
2022/08/10 10:37:33;;;;;;;11.13;3.80;;;28.60;41.10;;;;;;5029057;28;20452;-73
2022/08/10 10:40:01;;;;;;;7.65;3.78;;;29.10;39.80;;;;;;4998663;28;20042;-73
2022/08/10 10:43:01;;;;;;;9.10;4.18;;;29.40;38.80;;;;;;4996877;28;20075;-73
2022/08/10 10:45:48;;;;;;;12.50;4.18;;;29.10;39.10;;;;;;4999446;28;20037;-74
2022/08/10 10:48:40;;;;;;;8.60;3.45;;;29.30;39.30;;;;;;4999585;28;20634;-73
2022/08/10 10:51:47;;;;;;;12.05;3.72;;;29.60;38.10;;;;;;5029903;28;20392;-75
2022/08/10 10:54:26;;;;;;;10.95;3.90;;;29.80;38.30;;;;;;4992386;28;20046;-74
2022/08/10 10:57:23;;;;;;;10.43;3.83;;;29.60;38.20;;;;;;4990733;28;20054;-74
2022/08/10 11:00:10;;;;;;;8.10;3.67;;;30.00;38.20;;;;;;4996931;28;20031;-75
2022/08/10 11:03:22;;;;;;;10.40;3.95;;;30.30;36.70;;;;;;5001473;28;20042;-75
2022/08/10 11:06:00;;;;;;;8.35;3.30;;;30.30;35.70;;;;;;4994594;28;20027;-75
2022/08/10 11:08:32;;;;;;;8.02;3.92;;;30.50;35.50;;;;;;4994817;28;20159;-74
2022/08/10 11:11:06;;;;;;;9.80;3.97;;;30.30;36.30;;;;;;4986949;28;20054;-73
2022/08/10 11:13:49;;;;;;;7.65;3.30;;;30.40;35.40;;;;;;4983673;28;20046;-74
2022/08/10 11:16:34;;;;;;;9.20;4.03;;;30.50;35.90;;;;;;4972972;28;20039;-75
2022/08/10 11:19:45;;;;;;;6.22;3.65;;;30.70;35.00;;;;;;4983134;28;20030;-75
2022/08/10 11:22:29;;;;;;;7.97;3.83;;;31.00;34.50;;;;;;4972777;28;20030;-74
2022/08/10 11:25:01;;;;;;;7.03;3.58;;;31.40;33.50;;;;;;4979774;28;20600;-75
2022/08/10 11:28:05;;;;;;;7.47;3.67;;;31.50;32.30;;;;;;4981764;28;20040;-75
2022/08/10 11:30:43;;;;;;;9.90;4.15;;;30.90;33.10;;;;;;4990152;28;20086;-75
2022/08/10 11:33:47;;;;;;;8.68;3.40;;;30.80;33.20;;;;;;4981709;28;20053;-76
2022/08/10 11:36:40;;;;;;;7.78;3.78;;;30.70;33.90;;;;;;4960531;28;20035;-74
2022/08/10 11:39:24;;;;;;;6.60;3.45;;;30.60;33.00;;;;;;4981695;28;20043;-76
2022/08/10 11:42:01;;;;;;;9.27;3.20;;;30.60;33.60;;;;;;4982313;28;20043;-76
2022/08/10 11:44:41;;;;;;;7.15;3.42;;;30.70;33.50;;;;;;4980457;28;20105;-75
2022/08/10 11:47:11;;;;;;;8.23;4.00;;;31.00;33.70;;;;;;4983035;28;20038;-76
2022/08/10 11:49:48;;;;;;;9.32;3.78;;;30.70;33.40;;;;;;4979605;28;20096;-75
2022/08/10 11:52:21;;;;;;;6.03;3.38;;;30.90;33.20;;;;;;4975979;28;20057;-75
2022/08/10 11:54:53;;;;;;;7.10;3.60;;;30.50;34.20;;;;;;4980311;28;20109;-75
2022/08/10 11:57:21;;;;;;;7.60;3.58;;;30.20;34.30;;;;;;4992793;28;20113;-75
2022/08/10 11:59:55;;;;;;;8.25;3.47;;;30.30;33.90;;;;;;5000982;28;20388;-73
2022/08/10 12:02:34;;;;;;;6.75;3.80;;;30.70;34.80;;;;;;4981636;28;20061;-74
2022/08/10 12:05:09;;;;;;;8.85;3.65;;;31.10;33.40;;;;;;4977629;28;20054;-74
2022/08/10 12:07:41;;;;;;;10.23;3.80;;;31.50;32.90;;;;;;4979969;28;20053;-74
2022/08/10 12:10:08;;;;;;;6.05;3.08;;;31.90;31.90;;;;;;4975405;28;20486;-74
2022/08/10 12:12:42;;;;;;;8.30;3.45;;;32.10;30.60;;;;;;4995056;28;20538;-72
2022/08/10 12:15:14;;;;;;;8.43;3.75;;;32.50;30.80;;;;;;5006777;28;20453;-73
2022/08/10 12:17:48;;;;;;;6.15;3.38;;;32.20;30.90;;;;;;4979728;28;20034;-73
2022/08/10 12:20:26;;;;;;;5.13;3.30;;;32.40;30.50;;;;;;4994204;28;20042;-73
2022/08/10 12:23:10;;;;;;;7.05;3.55;;;32.60;29.80;;;;;;4999112;28;20038;-74
2022/08/10 12:25:53;;;;;;;6.00;3.58;;;32.60;30.10;;;;;;4971992;28;20035;-74
2022/08/10 12:28:35;;;;;;;4.77;3.27;;;32.20;30.30;;;;;;4974720;28;20030;-74
2022/08/10 12:31:05;;;;;;;6.25;3.80;;;32.20;29.90;;;;;;4975813;28;20030;-74
2022/08/10 12:33:47;;;;;;;6.78;3.63;;;32.20;29.50;;;;;;4986033;28;20117;-73
2022/08/10 12:36:16;;;;;;;6.63;3.42;;;32.30;30.50;;;;;;4977561;28;20035;-74
2022/08/10 12:39:13;;;;;;;5.60;3.00;;;32.40;29.80;;;;;;4975029;28;20034;-74
2022/08/10 12:41:44;;;;;;;8.75;3.50;;;32.50;29.20;;;;;;4997396;28;20556;-73
2022/08/10 12:44:38;;;;;;;5.28;3.30;;;32.70;29.60;;;;;;4996680;28;20468;-74
2022/08/10 12:47:18;;;;;;;6.68;3.40;;;32.50;29.50;;;;;;4970953;28;20034;-73
2022/08/10 12:50:20;;;;;;;7.18;2.95;;;32.70;29.80;;;;;;4985597;28;20041;-73
2022/08/10 12:53:34;;;;;;;7.35;3.38;;;32.70;28.30;;;;;;4979878;28;20027;-73
2022/08/10 12:56:01;;;;;;;6.90;3.00;;;32.70;28.40;;;;;;4982723;28;20092;-73
2022/08/10 12:58:29;;;;;;;6.45;3.25;;;32.60;28.70;;;;;;4978420;28;20536;-73
2022/08/10 13:00:56;;;;;;;6.70;3.42;;;32.60;27.80;;;;;;4976484;28;20105;-73
2022/08/10 13:03:24;;;;;;;7.00;2.55;;;32.10;29.00;;;;;;4977009;28;20034;-73
2022/08/10 13:05:53;;;;;;;8.18;2.83;;;31.70;28.40;;;;;;4985613;28;20047;-73
2022/08/10 13:11:08;;;;;;;4.85;2.70;;;31.90;27.90;;;;;;4972270;28;20433;-72
2022/08/10 13:13:38;;;;;;;5.28;2.55;;;32.30;27.60;;;;;;4978468;28;20078;-73
2022/08/10 13:16:05;;;;;;;6.80;3.10;;;32.70;28.00;;;;;;4980725;28;20031;-76